Pagrindinis puslapis
METAR-TAF:

METAR-TAF

Oro uostai :

Washington, Virdžinija, Jungtinės Amerikos Valstijos

platuma: 38-56-05N, ilguma: 077-26-51W, Aukštis: 95 m

Dabartinis oras

Ataskaita buvo paskelbta 30 minutes, ne 02:52 UTC
Vėjas 4 kt iš Šiaurės
Temperatūra 2°C
Drėgmė 75%
Slėgis 1019 hPa
Matomumas: 16.1 km
Išsisklaidę debesys ne aukštis 9500 ft
Su prošvaistėmis ne aukštis 22000 ft

METAR: KIAD 170252Z 36004KT 10SM SCT095 BKN220 02/M02 A3010 RMK AO2 SLP194 T00221022 53005

Laikas: 22:22 (03:22 UTC)

Prognozė

Ataskaita buvo paskelbta 3 valandos ir 50 minutes, ne 23:32 UTC
Prognozė galioja nuo 17 metu 00 UTC su 18 metu 06 UTC
Vėjas 5 kt iš Pietų/Pietryčių
Matomumas: 10 km
Su prošvaistėmis ne aukštis 11000 ft
Nuo 17 metu 1000 UTC
Vėjas 4 kt iš Šiaurės
Matomumas: 10 km
Su prošvaistėmis ne aukštis 25000 ft
Nuo 17 metu 2000 UTC
Vėjas 4 kt nuo kintamojo kryptimis
Matomumas: 10 km
Išsisklaidę debesys ne aukštis 25000 ft

TAF: KIAD 162332Z 1700/1806 15005KT P6SM BKN110 FM171000 35004KT P6SM BKN250 FM172000 VRB04KT P6SM SCT250

Orai ataskaitas ir orų prognozės (METAR, TAF).

turimą stotys yra geltonos ir raudonos taškus žemėlapyje.

Perkelti pele per norėdami pamatyti stoties vardą.

Tada spustelėkite, norėdami matyti oro stebėjimo ir prognozės.

Norėdami pakeisti žemėlapį: spustelėkite ant žalios mygtukų su juodo kryžiaus žemyn,; žalią mygtuką su brūkšneliu, jei norite nutolinti; arba žalių rodyklių gretimoms žemėlapius.


METAR-TAF: